Time;durP1;ratioP1;P1;durP2;ratioP2;P2;SDS_P1;SDS_P2;PMS_P1;PMS_P2;Temp;Humidity;BMP_temperature;BMP_pressure;BME280_temperature;BME280_humidity;BME280_pressure;Samples;Min_cycle;Max_cycle;Signal;HPM_P1;HPM_P2
2022/08/11 00:00:07;;;;;;;3.03;2.53;;;15.00;99.90;;;;;;5113177;27;20048;-49
2022/08/11 00:02:40;;;;;;;6.13;2.53;;;15.00;99.90;;;;;;5112185;28;20035;-51
2022/08/11 00:05:11;;;;;;;3.95;2.47;;;15.00;99.90;;;;;;5124640;27;20073;-49
2022/08/11 00:07:55;;;;;;;3.40;2.55;;;15.00;99.90;;;;;;5116708;27;20047;-49
2022/08/11 00:10:28;;;;;;;5.00;2.85;;;15.00;99.90;;;;;;5111763;28;20031;-51
2022/08/11 00:13:01;;;;;;;3.70;2.67;;;15.00;99.90;;;;;;5114089;27;20043;-48
2022/08/11 00:15:41;;;;;;;5.13;2.97;;;15.00;99.90;;;;;;5126661;27;20051;-51
2022/08/11 00:18:09;;;;;;;4.13;2.92;;;14.90;99.90;;;;;;5111975;28;20084;-51
2022/08/11 00:20:40;;;;;;;3.70;2.80;;;14.90;99.90;;;;;;5111819;28;20105;-50
2022/08/11 00:23:16;;;;;;;3.78;3.00;;;14.90;99.90;;;;;;5123596;27;20498;-51
2022/08/11 00:25:48;;;;;;;6.40;3.40;;;14.90;99.90;;;;;;5132977;27;20138;-50
2022/08/11 00:28:27;;;;;;;4.70;2.50;;;14.90;99.90;;;;;;5112911;27;20046;-51
2022/08/11 00:30:57;;;;;;;3.30;2.70;;;14.90;99.90;;;;;;5121441;27;20047;-50
2022/08/11 00:33:37;;;;;;;4.80;2.80;;;14.90;99.90;;;;;;5132784;27;20499;-49
2022/08/11 00:36:14;;;;;;;3.15;2.65;;;14.80;99.90;;;;;;5132229;27;20042;-50
2022/08/11 00:38:44;;;;;;;6.53;3.10;;;14.70;99.90;;;;;;5124125;27;20043;-52
2022/08/11 00:41:41;;;;;;;3.15;2.58;;;14.70;99.90;;;;;;5111506;28;20514;-51
2022/08/11 00:44:32;;;;;;;4.00;2.60;;;14.70;99.90;;;;;;5112465;27;20047;-48
2022/08/11 00:47:17;;;;;;;4.53;2.70;;;14.70;99.90;;;;;;5129002;27;20054;-49
2022/08/11 00:50:02;;;;;;;4.65;2.67;;;14.70;99.90;;;;;;5111808;28;20042;-50
2022/08/11 00:53:02;;;;;;;5.93;2.80;;;14.60;99.90;;;;;;5112084;28;20419;-51
2022/08/11 00:55:32;;;;;;;9.07;2.97;;;14.60;99.90;;;;;;5126024;28;20047;-49
2022/08/11 00:58:18;;;;;;;2.95;2.55;;;14.50;99.90;;;;;;5131071;28;20035;-48
2022/08/11 01:01:15;;;;;;;3.50;2.72;;;14.50;99.90;;;;;;5131866;28;20035;-52
2022/08/11 01:04:23;;;;;;;3.40;2.60;;;14.50;99.90;;;;;;5123551;28;20043;-51
2022/08/11 01:07:06;;;;;;;2.90;2.60;;;14.50;99.90;;;;;;5129552;28;20051;-49
2022/08/11 01:09:39;;;;;;;4.25;2.67;;;14.50;99.90;;;;;;5131018;28;20054;-50
2022/08/11 01:12:28;;;;;;;3.47;2.70;;;14.40;99.90;;;;;;5128130;27;20046;-52
2022/08/11 01:15:16;;;;;;;4.40;3.08;;;14.40;99.90;;;;;;5116007;28;20404;-50
2022/08/11 01:18:31;;;;;;;4.25;3.20;;;14.40;99.90;;;;;;5116056;28;20035;-51
2022/08/11 01:21:39;;;;;;;2.60;2.38;;;14.30;99.90;;;;;;5069689;28;20053;-50
2022/08/11 01:24:59;;;;;;;3.85;2.50;;;14.20;99.90;;;;;;5115564;28;20419;-50
2022/08/11 01:27:48;;;;;;;3.47;3.10;;;14.10;99.90;;;;;;5115622;27;20040;-50
2022/08/11 01:30:51;;;;;;;3.90;2.85;;;14.00;99.90;;;;;;5119365;27;20043;-51
2022/08/11 01:33:34;;;;;;;5.20;3.17;;;13.80;99.90;;;;;;5091822;27;20059;-51
2022/08/11 01:36:48;;;;;;;4.05;2.95;;;13.80;99.90;;;;;;5136101;27;20073;-50
2022/08/11 01:39:53;;;;;;;3.97;3.10;;;13.80;99.90;;;;;;5129627;27;20120;-49
2022/08/11 01:45:22;;;;;;;4.50;3.35;;;13.80;99.90;;;;;;5122373;22;20108;-49
2022/08/11 01:48:14;;;;;;;4.35;2.90;;;13.70;99.90;;;;;;5123783;27;20484;-50
2022/08/11 01:51:14;;;;;;;3.05;2.75;;;13.60;99.90;;;;;;5116107;27;20046;-49
2022/08/11 01:54:03;;;;;;;5.85;3.47;;;13.50;99.90;;;;;;5092755;28;20056;-48
2022/08/11 01:57:08;;;;;;;6.05;2.92;;;13.50;99.90;;;;;;5117954;27;20035;-48
2022/08/11 01:59:47;;;;;;;5.93;3.30;;;13.50;99.90;;;;;;5112010;28;20104;-49
2022/08/11 02:02:46;;;;;;;4.38;3.13;;;13.60;99.90;;;;;;5114483;27;20039;-49
2022/08/11 02:05:37;;;;;;;3.85;3.20;;;13.70;99.90;;;;;;5119324;27;20039;-49
2022/08/11 02:08:48;;;;;;;3.65;2.55;;;13.70;99.90;;;;;;5134241;27;20043;-49
2022/08/11 02:11:34;;;;;;;4.88;3.05;;;13.80;99.90;;;;;;5125603;27;20035;-50
2022/08/11 02:14:19;;;;;;;3.90;2.97;;;13.80;99.90;;;;;;5126549;27;20507;-49
2022/08/11 02:17:03;;;;;;;7.75;3.55;;;13.90;99.90;;;;;;5135265;27;20058;-50
2022/08/11 02:26:28;;;;;;;4.50;2.88;;;13.90;99.90;;;;;;5135012;27;20112;-50
2022/08/11 02:28:58;;;;;;;7.50;3.38;;;13.80;99.90;;;;;;5128286;27;20035;-48
2022/08/11 02:35:09;;;;;;;3.65;3.25;;;13.80;99.90;;;;;;5133650;27;20042;-49
2022/08/11 02:37:52;;;;;;;3.80;3.03;;;13.80;99.90;;;;;;5125274;27;20051;-50
2022/08/11 02:40:21;;;;;;;4.45;2.95;;;13.80;99.90;;;;;;5093678;28;20044;-49
2022/08/11 02:43:01;;;;;;;3.25;2.90;;;13.80;99.90;;;;;;5093685;28;20044;-48
2022/08/11 02:45:46;;;;;;;5.53;3.20;;;13.70;99.90;;;;;;5119835;27;20058;-48
2022/08/11 02:51:52;;;;;;;5.07;3.10;;;13.40;99.90;;;;;;5093361;28;20063;-48
2022/08/11 02:54:51;;;;;;;3.70;3.00;;;13.10;99.90;;;;;;5093664;28;20048;-49
2022/08/11 02:57:39;;;;;;;4.82;3.60;;;13.10;99.90;;;;;;5115268;27;20081;-48
2022/08/11 03:00:10;;;;;;;5.10;3.50;;;13.00;99.90;;;;;;5113526;28;20044;-49
2022/08/11 03:02:52;;;;;;;4.70;3.22;;;13.10;99.90;;;;;;5113638;28;20050;-49
2022/08/11 03:05:40;;;;;;;4.35;3.22;;;13.10;99.90;;;;;;5114926;27;20105;-48
2022/08/11 03:08:30;;;;;;;4.97;4.25;;;13.20;99.90;;;;;;5124282;27;20051;-48
2022/08/11 03:17:31;;;;;;;4.97;3.50;;;13.40;99.90;;;;;;5127502;27;20031;-50
2022/08/11 03:20:16;;;;;;;3.70;3.08;;;13.40;99.90;;;;;;5125046;27;20039;-51
2022/08/11 03:22:52;;;;;;;5.03;3.05;;;13.50;99.90;;;;;;5133719;27;20047;-50
2022/08/11 03:25:45;;;;;;;4.88;3.35;;;13.50;99.90;;;;;;5134039;27;20043;-49
2022/08/11 03:28:42;;;;;;;3.42;3.13;;;13.50;99.90;;;;;;5114340;27;20523;-48
2022/08/11 03:31:25;;;;;;;5.95;3.30;;;13.50;99.90;;;;;;5121128;27;20100;-48
2022/08/11 03:34:05;;;;;;;5.15;3.38;;;13.40;99.90;;;;;;5113026;28;20040;-48
2022/08/11 03:36:49;;;;;;;4.78;3.50;;;13.40;99.90;;;;;;5108662;27;20063;-49
2022/08/11 03:40:02;;;;;;;4.63;3.58;;;13.20;99.90;;;;;;5107809;27;20476;-48
2022/08/11 03:42:29;;;;;;;4.90;3.78;;;13.00;99.90;;;;;;5092391;28;20055;-48
2022/08/11 03:45:11;;;;;;;4.88;4.20;;;12.90;99.90;;;;;;5101088;27;20523;-48
2022/08/11 03:48:01;;;;;;;7.82;4.13;;;12.90;99.90;;;;;;5124754;27;20047;-53
2022/08/11 03:50:46;;;;;;;5.50;4.30;;;12.80;99.90;;;;;;5118937;27;20381;-48
2022/08/11 03:53:46;;;;;;;5.20;4.18;;;12.80;99.90;;;;;;5112424;28;20044;-48
2022/08/11 03:56:54;;;;;;;5.43;3.83;;;12.80;99.90;;;;;;5107854;27;20487;-49
2022/08/11 03:59:36;;;;;;;5.85;4.00;;;12.80;99.90;;;;;;5093758;27;20046;-50
2022/08/11 04:02:26;;;;;;;6.18;4.30;;;12.80;99.90;;;;;;5108172;28;20036;-49
2022/08/11 04:05:23;;;;;;;4.35;3.80;;;12.80;99.90;;;;;;5116540;27;20526;-48
2022/08/11 04:08:20;;;;;;;4.72;3.80;;;12.80;99.90;;;;;;5127654;27;20035;-48
2022/08/11 04:11:24;;;;;;;6.13;4.07;;;12.80;99.90;;;;;;5068777;28;20052;-49
2022/08/11 04:17:47;;;;;;;5.95;3.80;;;12.80;99.90;;;;;;5097539;27;20044;-50
2022/08/11 04:20:21;;;;;;;6.28;4.13;;;12.80;99.90;;;;;;5101649;28;20032;-49
2022/08/11 04:23:25;;;;;;;5.05;3.75;;;12.80;99.90;;;;;;5116783;27;20039;-50
2022/08/11 04:26:32;;;;;;;7.75;4.18;;;12.90;99.90;;;;;;5100989;28;20051;-50
2022/08/11 04:29:34;;;;;;;4.07;3.55;;;12.90;99.90;;;;;;5112482;28;20044;-48
2022/08/11 04:32:48;;;;;;;5.70;3.88;;;12.90;99.90;;;;;;5114712;27;20039;-48
2022/08/11 04:35:25;;;;;;;5.63;3.85;;;12.90;99.90;;;;;;5091492;28;20492;-49
2022/08/11 04:38:13;;;;;;;5.00;3.75;;;12.90;99.90;;;;;;5091781;28;20040;-48
2022/08/11 04:40:49;;;;;;;4.63;3.70;;;12.90;99.90;;;;;;5116537;27;20047;-49
2022/08/11 04:43:55;;;;;;;5.22;4.30;;;12.90;99.90;;;;;;5091579;28;20791;-48
2022/08/11 04:46:56;;;;;;;9.75;4.28;;;12.90;99.90;;;;;;5093782;28;20040;-48
2022/08/11 05:02:18;;;;;;;6.88;4.65;;;13.40;99.90;;;;;;5100608;28;20480;-51
2022/08/11 05:08:29;;;;;;;5.97;4.38;;;13.50;99.90;;;;;;5111603;28;20039;-49
2022/08/11 05:11:29;;;;;;;5.82;4.38;;;13.50;99.90;;;;;;5103261;28;20044;-49
2022/08/11 05:34:51;;;;;;;8.23;6.35;;;14.00;99.90;;;;;;5127649;28;20039;-50
2022/08/11 05:37:33;;;;;;;11.02;7.43;;;14.20;99.90;;;;;;5132348;28;20384;-48
2022/08/11 05:57:35;;;;;;;10.68;6.63;;;14.70;99.90;;;;;;5121951;28;20036;-50
2022/08/11 06:00:18;;;;;;;7.80;6.22;;;14.80;99.90;;;;;;5093472;28;20067;-49
2022/08/11 06:02:54;;;;;;;8.70;6.63;;;14.80;99.90;;;;;;5094442;28;20044;-50
2022/08/11 06:05:31;;;;;;;10.60;7.07;;;14.90;99.90;;;;;;5120252;27;20059;-49
2022/08/11 06:08:08;;;;;;;10.30;6.28;;;15.00;99.90;;;;;;5134494;27;20498;-50
2022/08/11 06:10:40;;;;;;;9.43;7.55;;;15.00;99.90;;;;;;5134925;27;20044;-50
2022/08/11 06:13:08;;;;;;;9.50;6.65;;;15.10;99.90;;;;;;5131571;27;20058;-48
2022/08/11 06:15:48;;;;;;;16.35;6.88;;;15.20;99.90;;;;;;5122905;27;20516;-48
2022/08/11 06:18:15;;;;;;;8.75;6.53;;;15.20;99.90;;;;;;5094307;28;20431;-49
2022/08/11 06:20:51;;;;;;;10.05;5.93;;;15.20;99.90;;;;;;5093547;28;20048;-50
2022/08/11 06:23:21;;;;;;;8.73;5.88;;;15.30;99.90;;;;;;5107180;27;20035;-49
2022/08/11 06:25:53;;;;;;;6.72;6.00;;;15.40;99.90;;;;;;5126384;27;20475;-50
2022/08/11 06:28:31;;;;;;;10.07;6.18;;;15.50;99.90;;;;;;5135034;27;20403;-48
2022/08/11 06:30:58;;;;;;;11.32;6.50;;;15.60;99.90;;;;;;5126845;27;20480;-48
2022/08/11 06:33:29;;;;;;;;;;;15.60;99.90;;;;;;5126683;27;20043;-50
2022/08/11 06:36:25;;;;;;;7.65;5.50;;;15.90;99.90;;;;;;5134619;27;19972;-48
2022/08/11 06:39:10;;;;;;;11.73;5.63;;;16.00;99.90;;;;;;5102901;27;20518;-48
2022/08/11 06:41:50;;;;;;;8.77;5.50;;;16.20;99.90;;;;;;5119567;27;20047;-50
2022/08/11 06:44:38;;;;;;;7.75;5.60;;;16.40;99.90;;;;;;5093321;28;20040;-48
2022/08/11 06:47:09;;;;;;;10.57;5.45;;;16.60;99.90;;;;;;5093777;28;20043;-49
2022/08/11 06:52:32;;;;;;;7.25;5.32;;;16.90;99.90;;;;;;5122961;27;20049;-48
2022/08/11 07:00:26;;;;;;;13.13;5.07;;;17.10;99.90;;;;;;5134298;27;20043;-50
2022/08/11 07:01:26;;;;;;;9.30;5.53;;;17.40;99.90;;;;;;5118889;27;20181;-48
2022/08/11 07:04:05;;;;;;;6.05;5.07;;;17.50;99.90;;;;;;5134182;27;20046;-49
2022/08/11 07:16:15;;;;;;;5.07;4.22;;;18.00;99.90;;;;;;5112839;28;20050;-49
2022/08/11 07:30:38;;;;;;;6.43;3.97;;;18.70;99.90;;;;;;5071225;28;20100;-49
2022/08/11 07:33:06;;;;;;;4.43;4.00;;;18.80;99.90;;;;;;5114448;27;20046;-49
2022/08/11 07:35:44;;;;;;;8.55;4.07;;;18.80;99.90;;;;;;5124942;27;20031;-52
2022/08/11 07:38:18;;;;;;;5.32;4.03;;;18.80;99.90;;;;;;5131981;27;20051;-50
2022/08/11 07:40:51;;;;;;;7.05;3.95;;;18.80;99.90;;;;;;5131879;27;20539;-51
2022/08/11 07:43:18;;;;;;;11.57;3.92;;;18.80;99.90;;;;;;5128073;27;20043;-49
2022/08/11 07:54:14;;;;;;;7.40;4.35;;;19.30;99.90;;;;;;5101375;28;20055;-49
2022/08/11 07:56:44;;;;;;;6.95;3.72;;;19.40;99.90;;;;;;5092395;28;20036;-50
2022/08/11 08:19:24;;;;;;;6.03;3.90;;;20.30;99.90;;;;;;5091253;28;20044;-49
2022/08/11 08:21:52;;;;;;;6.70;4.00;;;20.30;99.90;;;;;;5082941;28;20450;-49
2022/08/11 08:24:19;;;;;;;;;;;20.30;99.90;;;;;;5092391;28;20047;-49
2022/08/11 08:26:58;;;;;;;9.38;4.05;;;20.40;99.90;;;;;;5091838;28;19981;-49
2022/08/11 08:32:16;;;;;;;5.15;4.15;;;20.70;99.90;;;;;;5071813;28;20049;-49
2022/08/11 08:34:44;;;;;;;6.32;4.20;;;20.80;99.90;;;;;;5071217;28;20040;-50
2022/08/11 08:37:12;;;;;;;4.32;3.88;;;20.80;99.90;;;;;;5072946;28;20493;-51
2022/08/11 08:39:59;;;;;;;11.05;4.28;;;20.80;99.90;;;;;;5082736;28;20076;-49
2022/08/11 08:42:29;;;;;;;6.88;4.07;;;20.70;99.90;;;;;;5091719;28;20401;-51
2022/08/11 08:45:15;;;;;;;4.97;4.07;;;20.70;99.90;;;;;;5091504;28;20040;-49
2022/08/11 08:47:58;;;;;;;8.13;4.07;;;20.80;99.90;;;;;;5090871;28;20048;-50
2022/08/11 08:51:33;;;;;;;5.53;4.03;;;20.80;99.90;;;;;;5079309;28;20475;-49
2022/08/11 08:53:27;;;;;;;8.02;4.10;;;20.80;99.90;;;;;;5071238;28;20042;-49
2022/08/11 08:55:56;;;;;;;8.15;4.20;;;21.00;99.90;;;;;;5071229;28;20790;-51
2022/08/11 08:58:24;;;;;;;6.47;3.67;;;21.10;99.90;;;;;;5080142;28;20043;-49
2022/08/11 09:00:53;;;;;;;8.98;3.80;;;21.20;99.90;;;;;;5088423;28;20075;-50
2022/08/11 09:03:21;;;;;;;5.97;3.15;;;21.30;99.90;;;;;;5091662;28;20060;-50
2022/08/11 09:06:09;;;;;;;6.50;3.40;;;21.50;99.90;;;;;;5091365;28;20534;-49
2022/08/11 09:08:36;;;;;;;6.53;3.63;;;21.60;99.90;;;;;;5080852;28;20412;-49
2022/08/11 09:13:50;;;;;;;6.90;3.45;;;21.60;99.90;;;;;;5091380;28;19931;-50
2022/08/11 09:16:34;;;;;;;8.95;3.60;;;21.60;99.90;;;;;;5090853;28;20044;-49
2022/08/11 09:19:02;;;;;;;6.97;3.38;;;21.60;99.90;;;;;;5082502;28;20056;-50
2022/08/11 09:21:31;;;;;;;5.63;3.55;;;21.80;99.90;;;;;;5091186;28;20067;-49
2022/08/11 09:27:07;;;;;;;6.00;3.58;;;22.00;99.90;;;;;;5088452;28;20111;-49
2022/08/11 09:29:36;;;;;;;9.40;3.90;;;22.20;99.90;;;;;;5086439;28;20036;-51
2022/08/11 09:32:05;;;;;;;7.03;3.42;;;22.20;99.90;;;;;;5090653;28;20039;-50
2022/08/11 09:34:35;;;;;;;4.57;3.60;;;22.10;99.90;;;;;;5092577;28;20217;-53
2022/08/11 09:40:30;;;;;;;5.70;3.40;;;22.10;99.90;;;;;;5074275;28;20497;-52
2022/08/11 09:45:50;;;;;;;7.00;3.65;;;22.10;99.90;;;;;;5083184;28;20048;-49
2022/08/11 09:48:19;;;;;;;7.20;3.70;;;22.20;99.90;;;;;;5087721;28;20051;-50
2022/08/11 09:50:58;;;;;;;6.57;3.83;;;22.30;99.90;;;;;;5094286;28;20554;-49
2022/08/11 09:53:30;;;;;;;5.45;3.78;;;22.30;99.90;;;;;;5094177;28;20052;-49
2022/08/11 09:58:57;;;;;;;6.20;4.18;;;22.30;99.90;;;;;;5094718;28;20059;-50
2022/08/11 10:01:29;;;;;;;4.45;4.00;;;22.40;99.90;;;;;;5094097;28;20043;-49
2022/08/11 10:04:16;;;;;;;7.03;3.83;;;22.50;99.90;;;;;;5092075;28;20036;-48
2022/08/11 10:07:09;;;;;;;6.10;3.90;;;22.50;99.90;;;;;;5090907;28;20059;-50
2022/08/11 10:09:56;;;;;;;6.30;3.40;;;22.50;99.90;;;;;;5094521;28;20044;-50
2022/08/11 10:12:29;;;;;;;8.85;4.00;;;22.60;99.90;;;;;;5083352;28;20044;-49
2022/08/11 10:20:38;;;;;;;5.88;3.10;;;22.60;99.90;;;;;;5085928;28;20488;-52
2022/08/11 10:28:41;;;;;;;6.40;3.53;;;23.00;99.90;;;;;;5082013;28;20404;-52
2022/08/11 10:34:28;;;;;;;11.23;3.92;;;23.00;99.90;;;;;;5075410;28;20290;-51
2022/08/11 10:37:01;;;;;;;7.18;4.13;;;23.20;99.90;;;;;;5085270;28;20386;-49
2022/08/11 10:39:28;;;;;;;4.95;3.92;;;23.20;99.90;;;;;;5093793;28;20044;-50
2022/08/11 10:47:33;;;;;;;9.77;4.07;;;23.20;99.90;;;;;;5089567;28;20058;-48
2022/08/11 10:47:54;;;;;;;6.60;3.60;;;23.30;99.90;;;;;;5091162;28;20047;-49
2022/08/11 10:58:47;;;;;;;6.15;3.47;;;23.50;99.90;;;;;;5093542;28;20036;-54
2022/08/11 11:01:21;;;;;;;6.93;3.55;;;23.60;99.90;;;;;;5093090;28;20047;-50
2022/08/11 11:03:53;;;;;;;6.85;3.72;;;23.80;99.90;;;;;;5091901;28;20074;-49
2022/08/11 11:06:45;;;;;;;6.80;3.45;;;23.80;99.90;;;;;;5086705;28;20401;-50
2022/08/11 11:09:17;;;;;;;7.38;3.70;;;23.80;99.90;;;;;;5093374;28;20040;-49
2022/08/11 11:17:55;;;;;;;6.72;3.63;;;24.00;99.90;;;;;;5092951;28;20040;-49
2022/08/11 11:20:42;;;;;;;6.95;3.53;;;24.00;99.90;;;;;;5092095;28;20110;-49
2022/08/11 11:23:17;;;;;;;5.68;3.60;;;24.00;99.90;;;;;;5081072;28;20542;-50
2022/08/11 11:26:18;;;;;;;4.10;3.40;;;24.10;99.90;;;;;;5072499;28;20086;-50
2022/08/11 11:29:05;;;;;;;6.28;3.50;;;24.20;99.90;;;;;;5074977;28;20044;-50
2022/08/11 11:31:50;;;;;;;6.30;3.35;;;24.30;99.90;;;;;;5083947;28;20102;-53
2022/08/11 11:34:45;;;;;;;8.43;3.47;;;24.30;99.90;;;;;;5092973;28;20122;-50
2022/08/11 11:37:19;;;;;;;4.40;3.47;;;24.50;99.90;;;;;;5092637;28;20656;-49
2022/08/11 11:39:46;;;;;;;7.35;3.20;;;24.50;99.90;;;;;;5088370;28;20047;-51
2022/08/11 11:42:15;;;;;;;;;;;24.60;99.90;;;;;;5084729;28;20079;-49
2022/08/11 11:44:43;;;;;;;3.53;3.17;;;24.70;99.90;;;;;;5092426;28;20342;-49
2022/08/11 11:47:12;;;;;;;6.57;3.33;;;24.80;99.90;;;;;;5091941;28;20044;-49
2022/08/11 11:49:42;;;;;;;3.85;3.03;;;24.80;99.90;;;;;;5083999;28;20036;-47
2022/08/11 11:52:16;;;;;;;5.38;3.20;;;24.80;99.90;;;;;;5073686;28;20080;-51
2022/08/11 11:54:49;;;;;;;4.18;3.13;;;24.90;99.90;;;;;;5091771;28;20114;-50
2022/08/11 12:03:03;;;;;;;4.82;3.20;;;25.10;99.90;;;;;;5092292;28;20036;-51
2022/08/11 12:05:33;;;;;;;4.93;3.47;;;25.10;99.90;;;;;;5092043;28;20130;-50
2022/08/11 12:13:41;;;;;;;7.47;3.22;;;25.30;99.90;;;;;;5091631;28;20046;-51
2022/08/11 12:16:13;;;;;;;4.85;3.00;;;25.40;99.70;;;;;;5083807;28;20036;-50
2022/08/11 12:19:00;;;;;;;7.90;3.20;;;25.50;99.90;;;;;;5092001;28;20051;-49
2022/08/11 12:21:29;;;;;;;4.43;3.00;;;25.70;99.90;;;;;;5091827;28;20093;-52
2022/08/11 12:29:35;;;;;;;3.30;3.00;;;25.90;99.50;;;;;;5091652;28;20081;-49
2022/08/11 12:32:07;;;;;;;3.70;2.83;;;26.00;99.90;;;;;;5091481;28;20048;-49
2022/08/11 12:34:35;;;;;;;4.53;3.72;;;25.90;97.80;;;;;;5091058;28;20040;-50
2022/08/11 12:37:04;;;;;;;5.43;2.95;;;26.00;99.10;;;;;;5083250;28;20404;-51
2022/08/11 12:45:30;;;;;;;;;;;26.00;98.90;;;;;;5079890;28;20041;-53
2022/08/11 12:54:48;;;;;;;6.60;3.10;;;26.60;97.80;;;;;;5079270;28;20497;-49
2022/08/11 13:05:44;;;;;;;5.55;2.97;;;26.50;96.60;;;;;;5091200;28;20043;-51
2022/08/11 13:08:13;;;;;;;7.45;3.25;;;26.40;96.20;;;;;;5090757;28;20048;-49
2022/08/11 13:13:28;;;;;;;4.90;3.17;;;26.50;96.70;;;;;;5095643;28;20067;-50
2022/08/11 13:16:16;;;;;;;5.25;3.35;;;26.60;97.10;;;;;;5089737;28;20044;-49
2022/08/11 13:18:43;;;;;;;4.20;2.92;;;26.50;95.60;;;;;;5091626;28;20048;-49
2022/08/11 13:21:11;;;;;;;3.10;2.75;;;26.30;95.40;;;;;;5094989;28;20059;-48
2022/08/11 13:23:50;;;;;;;4.65;2.85;;;26.20;95.10;;;;;;5095331;28;20161;-50
2022/08/11 13:26:32;;;;;;;3.35;3.05;;;26.20;95.90;;;;;;5086309;28;20064;-49
2022/08/11 13:29:17;;;;;;;4.63;2.88;;;26.30;96.50;;;;;;5074915;28;20111;-49
2022/08/11 13:31:45;;;;;;;4.60;2.92;;;26.40;95.80;;;;;;5056929;28;20036;-49
2022/08/11 13:34:13;;;;;;;3.78;2.85;;;26.50;95.70;;;;;;5085729;28;20066;-50
2022/08/11 13:36:40;;;;;;;4.85;3.00;;;26.40;95.80;;;;;;5086553;28;20492;-49
2022/08/11 13:39:08;;;;;;;3.63;2.60;;;26.50;95.30;;;;;;5094953;28;20051;-49
2022/08/11 13:41:40;;;;;;;5.05;3.13;;;26.50;97.20;;;;;;5093836;28;20035;-50
2022/08/11 13:44:10;;;;;;;3.15;2.80;;;26.60;96.20;;;;;;5086201;28;20036;-46
2022/08/11 13:47:12;;;;;;;5.40;2.70;;;26.60;95.90;;;;;;5050562;28;20147;-50
2022/08/11 13:49:40;;;;;;;5.80;2.47;;;26.50;94.70;;;;;;5054252;28;20041;-50
2022/08/11 13:52:13;;;;;;;8.30;3.05;;;26.50;95.70;;;;;;5047039;28;20045;-48
2022/08/11 13:54:41;;;;;;;4.15;2.67;;;26.60;95.20;;;;;;5054187;28;20045;-51
2022/08/11 13:57:11;;;;;;;3.83;2.67;;;26.50;95.60;;;;;;5054542;28;20045;-48
2022/08/11 14:00:08;;;;;;;6.00;3.10;;;26.70;94.80;;;;;;5047860;28;20564;-49
2022/08/11 14:02:55;;;;;;;5.53;2.50;;;26.90;94.70;;;;;;5054393;28;20052;-49
2022/08/11 14:05:27;;;;;;;3.10;2.70;;;27.10;93.60;;;;;;5053960;28;20040;-48
2022/08/11 14:07:59;;;;;;;6.63;2.83;;;27.00;94.40;;;;;;5054223;28;20060;-48
2022/08/11 14:10:29;;;;;;;6.75;2.83;;;26.90;94.30;;;;;;5052963;28;20412;-53
2022/08/11 14:15:56;;;;;;;7.28;3.20;;;26.70;93.30;;;;;;5053971;28;20489;-48
2022/08/11 14:18:27;;;;;;;2.92;2.47;;;26.60;94.00;;;;;;5052195;28;20036;-48
2022/08/11 14:23:49;;;;;;;10.32;2.90;;;26.70;93.70;;;;;;5053962;28;20056;-48
2022/08/11 14:26:28;;;;;;;3.92;2.83;;;26.80;92.90;;;;;;5053931;28;20045;-49
2022/08/11 14:29:22;;;;;;;9.25;3.28;;;26.80;93.30;;;;;;5053525;28;20045;-49
2022/08/11 14:31:54;;;;;;;3.65;2.63;;;26.80;93.20;;;;;;5050579;28;20494;-49
2022/08/11 14:34:23;;;;;;;5.28;2.55;;;26.80;94.20;;;;;;5052922;28;20033;-48
2022/08/11 14:37:09;;;;;;;3.38;2.70;;;26.90;93.30;;;;;;5053528;28;20542;-49
2022/08/11 14:39:44;;;;;;;4.43;2.22;;;26.70;92.50;;;;;;5053795;28;20524;-50
2022/08/11 14:48:00;;;;;;;2.97;2.30;;;27.20;92.30;;;;;;5056571;28;20041;-48
2022/08/11 14:50:28;;;;;;;3.97;2.65;;;27.20;92.60;;;;;;5052758;28;20056;-49
2022/08/11 14:52:59;;;;;;;2.88;2.25;;;27.10;91.20;;;;;;5061280;28;20515;-48
2022/08/11 14:58:19;;;;;;;6.70;2.75;;;26.90;92.10;;;;;;5053162;28;20041;-49
2022/08/11 15:00:46;;;;;;;3.15;2.08;;;26.80;91.70;;;;;;5061150;28;20059;-49
2022/08/11 15:03:14;;;;;;;2.83;2.42;;;26.80;91.50;;;;;;5060880;28;20044;-49
2022/08/11 15:05:52;;;;;;;5.47;2.50;;;26.70;92.40;;;;;;5052990;28;20048;-48
2022/08/11 15:17:06;;;;;;;5.60;2.65;;;26.60;90.10;;;;;;5073110;28;20412;-49
2022/08/11 15:17:08;;;;;;;6.05;2.40;;;26.90;90.80;;;;;;5066704;28;20045;-47
2022/08/11 15:24:18;;;;;;;4.80;2.63;;;27.10;90.80;;;;;;5071819;28;20044;-50
2022/08/11 15:25:12;;;;;;;4.18;3.00;;;27.60;91.10;;;;;;5069736;28;20063;-47
2022/08/11 15:39:15;;;;;;;3.15;2.25;;;27.50;91.10;;;;;;5052544;28;20049;-47
2022/08/11 15:48:05;;;;;;;4.22;2.03;;;26.60;88.10;;;;;;5072305;28;20048;-48
2022/08/11 15:50:35;;;;;;;3.00;2.13;;;26.50;90.00;;;;;;5068267;28;20048;-48
2022/08/11 15:53:07;;;;;;;4.63;2.63;;;26.50;90.20;;;;;;5053585;28;20429;-53
2022/08/11 15:55:36;;;;;;;3.80;2.95;;;26.30;89.60;;;;;;5052069;28;20067;-49
2022/08/11 16:06:41;;;;;;;2.20;2.00;;;26.50;88.80;;;;;;5067817;28;20501;-50
2022/08/11 16:09:17;;;;;;;4.32;2.40;;;26.40;89.10;;;;;;5070945;28;20055;-49
2022/08/11 16:11:47;;;;;;;5.13;2.30;;;26.50;88.30;;;;;;5069183;28;20509;-49
2022/08/11 16:17:01;;;;;;;3.78;2.13;;;26.40;90.10;;;;;;5067605;28;20052;-50
2022/08/11 16:19:34;;;;;;;7.15;2.35;;;26.40;90.10;;;;;;5071443;28;20037;-49
2022/08/11 16:22:08;;;;;;;5.55;2.50;;;26.30;89.50;;;;;;5064486;28;20438;-49
2022/08/11 16:24:38;;;;;;;2.95;2.10;;;26.30;89.80;;;;;;5069780;28;20048;-52
2022/08/11 16:27:26;;;;;;;13.93;2.30;;;26.20;90.00;;;;;;5069406;28;20041;-48
2022/08/11 16:29:55;;;;;;;8.02;2.65;;;26.10;90.00;;;;;;5065788;28;20040;-47
2022/08/11 16:32:24;;;;;;;7.95;2.42;;;25.90;90.50;;;;;;5065334;28;20037;-49
2022/08/11 16:40:40;;;;;;;4.28;2.33;;;25.20;90.80;;;;;;5059244;28;20063;-49
2022/08/11 16:48:46;;;;;;;6.25;2.60;;;25.50;90.20;;;;;;5067626;28;20052;-49
2022/08/11 16:51:14;;;;;;;6.60;2.47;;;26.30;89.70;;;;;;5052667;28;20041;-48
2022/08/11 16:53:44;;;;;;;3.95;2.40;;;26.80;87.50;;;;;;5071025;28;20037;-48
2022/08/11 16:56:37;;;;;;;6.45;2.30;;;26.70;85.90;;;;;;5063515;28;20051;-51
2022/08/11 16:59:15;;;;;;;4.15;1.95;;;26.70;86.70;;;;;;5068451;28;20050;-50
2022/08/11 17:01:52;;;;;;;5.35;2.25;;;27.00;83.80;;;;;;5069607;28;20296;-49
2022/08/11 17:13:24;;;;;;;2.95;2.30;;;28.10;80.40;;;;;;5055845;28;20041;-49
2022/08/11 17:16:07;;;;;;;3.50;2.15;;;28.30;81.00;;;;;;5051071;28;20045;-49
2022/08/11 17:18:48;;;;;;;3.67;2.25;;;27.80;81.00;;;;;;5051438;28;20045;-50
2022/08/11 17:21:33;;;;;;;5.65;2.25;;;27.80;80.80;;;;;;5063198;28;20070;-49
2022/08/11 17:24:03;;;;;;;2.78;2.10;;;27.80;80.40;;;;;;5071185;28;20045;-49
2022/08/11 17:26:57;;;;;;;5.70;2.17;;;27.60;81.20;;;;;;5070875;28;20040;-52
2022/08/11 17:29:33;;;;;;;6.65;2.28;;;27.10;80.80;;;;;;5063951;28;20075;-49
2022/08/11 17:35:31;;;;;;;5.65;2.42;;;24.80;85.00;;;;;;5070352;28;20123;-49
2022/08/11 17:38:07;;;;;;;3.65;2.50;;;24.00;87.90;;;;;;5065165;28;20063;-50
2022/08/11 17:48:23;;;;;;;3.13;2.05;;;23.60;89.90;;;;;;5065239;28;20040;-50
2022/08/11 17:49:06;;;;;;;2.63;2.00;;;22.80;90.60;;;;;;5063857;28;20047;-48
2022/08/11 17:59:56;;;;;;;7.70;2.15;;;22.20;91.50;;;;;;5061366;28;20056;-53
2022/08/11 18:05:23;;;;;;;5.95;2.10;;;22.20;91.70;;;;;;5073207;28;20037;-51
